Terminal Aerodrome Forecast
Issued by NWS

Home | Current Version | Previous Version | Text Only | Print | Product List | Glossary On
Versions: 1 2 3 4 5 6 7 8 9 10 11 12 13 14 15 16 17
000
FTUS41 KBGM 242340 AAC
TAFELM
TAF AMD
KELM 242340Z 2500/2524 VRB03KT P6SM BKN060 WS020/25035KT
     FM250400 VRB03KT P6SM BKN030 WS020/26035KT
     FM250800 VRB03KT 4SM BR OVC014
     FM251800 01004KT 3SM -RA OVC010
     FM252200 03004KT P6SM OVC012=

USA.gov is the U.S. government's official web portal to all federal, state and local government web resources and services.